Data for 05/21/2009

Time Sea-Level Adjusted Pressure Absolute Pressure Temperature Relative Humidity Dew Point   
(mb) (inHg) (mb) (inHg) (C) (F) (%) (C) (F)
00:05 1022 30.18 852 25.16 3.6 38.5 45 -7.1 19.1
00:10 1022 30.18 852 25.16 3.7 38.6 43 -7.7 18.2
00:15 1022 30.18 852 25.16 3.8 38.9 43 -7.7 18.2
00:20 1023 30.21 852 25.16 3.7 38.7 44 -7.5 18.5
00:25 1023 30.21 852 25.16 3.7 38.7 41 -8.3 17.1
00:30 1023 30.21 852 25.16 4 39.2 42 -7.8 17.9
00:35 1023 30.21 852 25.16 3.8 38.8 44 -7.3 18.9
00:40 1023 30.21 852 25.16 3.6 38.4 44 -7.6 18.4
00:45 1023 30.21 852 25.16 3.6 38.4 43 -7.8 17.9
00:50 1023 30.21 852 25.16 3.6 38.4 44 -7.5 18.5
00:55 1023 30.21 852 25.16 3.4 38.1 45 -7.5 18.4
01:00 1023 30.21 852 25.16 3.4 38 46 -7.1 19.2
01:05 1023 30.21 852 25.16 3.2 37.7 46 -7.3 18.8
01:10 1023 30.21 852 25.16 3.1 37.5 48 -7 19.5
01:15 1023 30.21 852 25.16 2.8 37 50 -6.7 19.9
01:20 1023 30.21 852 25.16 2.5 36.4 51 -6.6 20
01:25 1023 30.21 852 25.16 2.3 36.2 50 -7.1 19.2
01:30 1023 30.21 852 25.16 2.8 37 46 -7.7 18.1
01:35 1023 30.21 852 25.16 3.1 37.6 46 -7.4 18.6
01:40 1023 30.21 852 25.16 2.9 37.3 48 -7 19.3
01:45 1023 30.21 852 25.16 2.6 36.6 48 -7.3 18.9
01:50 1023 30.21 852 25.16 2.5 36.4 48 -7.5 18.6
01:55 1023 30.21 852 25.16 2.4 36.3 49 -7.2 19.1
02:00 1023 30.21 852 25.16 2.3 36.1 49 -7.4 18.6
02:05 1023 30.21 852 25.16 2.6 36.7 50 -6.9 19.5
02:10 1023 30.21 852 25.16 3.1 37.6 51 -6.1 21
02:15 1023 30.21 852 25.16 3.4 38.1 51 -5.7 21.8
02:20 1023 30.21 852 25.16 3.4 38.2 50 -6.1 21.1
02:25 1023 30.21 852 25.16 2.9 37.2 50 -6.6 20
02:30 1023 30.21 852 25.16 2.7 36.9 52 -6.1 21
02:35 1023 30.21 852 25.16 2.5 36.5 52 -6.3 20.7
02:40 1022 30.18 852 25.16 2.4 36.3 52 -6.4 20.5
02:45 1022 30.18 852 25.16 2.3 36.1 52 -6.7 19.9
02:50 1022 30.18 852 25.16 2.2 35.9 51 -6.9 19.5
02:55 1022 30.18 852 25.16 2.2 35.9 50 -7.3 18.9
03:00 1022 30.18 852 25.16 2.4 36.3 51 -6.8 19.7
03:05 1022 30.18 852 25.16 2.5 36.5 50 -7 19.4
03:10 1022 30.18 852 25.16 2.5 36.5 50 -6.9 19.6
03:15 1022 30.18 852 25.16 2.5 36.5 52 -6.5 20.3
03:20 1022 30.18 852 25.16 2.5 36.4 52 -6.5 20.4
03:25 1023 30.21 852 25.16 2.3 36.1 53 -6.5 20.4
03:30 1023 30.21 852 25.16 2.2 35.9 54 -6.2 20.8
03:35 1023 30.21 852 25.16 2.2 35.9 56 -5.7 21.7
03:40 1023 30.21 852 25.16 2.2 35.9 57 -5.4 22.2
03:45 1023 30.21 852 25.16 2.2 36 58 -5.2 22.7
03:50 1023 30.21 852 25.16 2.3 36.1 58 -5.1 22.8
03:55 1023 30.21 852 25.16 2.3 36.1 56 -5.5 22.1
04:00 1023 30.21 852 25.16 2.1 35.8 55 -6 21.2
04:05 1023 30.21 852 25.16 1.8 35.2 57 -5.9 21.3
04:10 1023 30.21 852 25.16 1.8 35.2 57 -5.8 21.6
04:15 1023 30.21 852 25.16 1.8 35.3 56 -6 21.2
04:20 1023 30.21 852 25.16 2 35.6 55 -6 21.1
04:25 1023 30.21 852 25.16 2.3 36.1 55 -5.8 21.6
04:30 1023 30.21 852 25.16 2.2 36 53 -6.3 20.7
04:35 1023 30.21 852 25.16 2.3 36.2 51 -6.8 19.7
04:40 1023 30.21 852 25.16 2.6 36.7 49 -7.2 19.1
04:45 1023 30.21 852 25.16 2.7 36.8 48 -7.3 18.8
04:50 1023 30.21 852 25.16 2.5 36.4 49 -7.3 18.8
04:55 1023 30.21 852 25.16 2.3 36.1 50 -7.2 19.1
05:00 1023 30.21 852 25.16 2.1 35.7 52 -6.8 19.8
05:05 1023 30.21 852 25.16 1.8 35.2 55 -6.4 20.4
05:10 1023 30.21 852 25.16 1.9 35.4 57 -5.7 21.7
05:15 1023 30.21 852 25.16 2 35.5 55 -6.2 20.8
05:20 1023 30.21 852 25.16 1.7 35 58 -5.7 21.7
05:25 1023 30.21 852 25.16 1.6 34.9 59 -5.6 22
05:30 1023 30.21 852 25.16 1.3 34.4 59 -5.8 21.6
05:35 1023 30.21 852 25.16 1.3 34.4 60 -5.7 21.7
05:40 1023 30.21 852 25.16 1.3 34.4 60 -5.7 21.8
05:45 1023 30.21 852 25.16 1.3 34.3 59 -5.8 21.6
05:50 1023 30.21 852 25.16 1.2 34.2 59 -5.9 21.3
05:55 1023 30.21 852 25.16 1.3 34.4 58 -6.1 21.1
06:00 1023 30.21 852 25.16 1.3 34.4 57 -6.3 20.7
06:05 1023 30.21 852 25.16 1.2 34.1 57 -6.5 20.3
06:10 1023 30.21 852 25.16 1.1 34.1 53 -7.5 18.5
06:15 1023 30.21 852 25.16 1.4 34.5 53 -7.3 18.9
06:20 1023 30.21 852 25.16 1.7 35 53 -6.9 19.5
06:25 1023 30.21 852 25.16 1.8 35.2 54 -6.5 20.2
06:30 1023 30.21 852 25.16 1.8 35.2 54 -6.6 20.1
06:35 1023 30.21 852 25.16 1.9 35.4 55 -6.1 21
06:40 1023 30.21 852 25.16 1.8 35.3 59 -5.4 22.3
06:45 1023 30.21 852 25.16 2.2 35.9 59 -5.1 22.8
06:50 1023 30.21 852 25.16 2.5 36.4 57 -5.1 22.8
06:55 1023 30.21 852 25.16 2.6 36.7 58 -4.9 23.2
07:00 1023 30.21 852 25.16 2.6 36.8 58 -4.7 23.5
07:05 1023 30.21 852 25.16 2.7 36.9 58 -4.8 23.4
07:10 1023 30.21 852 25.16 2.9 37.1 57 -4.9 23.2
07:15 1023 30.21 852 25.16 3 37.4 57 -4.8 23.3
07:20 1023 30.21 852 25.16 3.3 37.9 55 -5 23
07:25 1023 30.21 852 25.16 3.7 38.6 53 -5.1 22.8
07:30 1023 30.21 852 25.16 4 39.1 55 -4.1 24.5
07:35 1023 30.21 852 25.16 4.2 39.6 55 -4.1 24.7
07:40 1023 30.21 852 25.16 4.8 40.7 54 -3.6 25.5
07:45 1023 30.21 852 25.16 5.2 41.4 54 -3.4 25.9
07:50 1023 30.21 852 25.16 5.5 41.8 53 -3.3 26.1
07:55 1023 30.21 852 25.16 5.5 42 52 -3.6 25.6
08:00 1023 30.21 852 25.16 6 42.8 50 -3.7 25.4
08:05 1023 30.21 852 25.16 6.3 43.3 49 -3.7 25.3
08:10 1023 30.21 852 25.16 6.7 44.1 44 -4.6 23.7
08:15 1023 30.21 852 25.16 6.9 44.4 42 -5.3 22.5
08:20 1023 30.21 852 25.16 7 44.7 40 -5.5 22
08:25 1023 30.21 852 25.16 7.1 44.7 40 -5.6 21.9
08:30 1023 30.21 852 25.16 7.8 46 36 -6.5 20.3
08:35 1022 30.18 852 25.16 7.8 46 32 -7.7 18.1
08:40 1022 30.18 852 25.16 8.3 46.9 31 -8 17.6
08:45 1022 30.18 852 25.16 8.7 47.7 29 -8.3 17.1
08:50 1022 30.18 852 25.16 8.8 47.9 30 -7.9 17.8
08:55 1022 30.18 852 25.16 9.4 48.9 29 -8 17.6
09:00 1022 30.18 852 25.16 9.3 48.7 28 -8.4 16.9
09:05 1023 30.21 852 25.16 9.1 48.3 28 -8.6 16.4
09:10 1023 30.21 852 25.16 9.3 48.8 28 -8.4 16.9
09:15 1022 30.18 852 25.16 9.6 49.2 28 -8 17.6
09:20 1022 30.18 852 25.16 10.2 50.3 27 -7.8 18
09:25 1022 30.18 852 25.16 10.1 50.1 28 -7.6 18.3
09:30 1022 30.18 852 25.16 10.3 50.5 28 -7.4 18.7
09:35 1022 30.18 852 25.16 10.8 51.5 28 -7.1 19.2
09:40 1022 30.18 852 25.16 11.3 52.3 31 -5.2 22.6
09:45 1022 30.18 852 25.16 10.8 51.4 34 -4.5 23.9
09:50 1022 30.18 852 25.16 9.8 49.7 36 -4.5 23.9
09:55 1022 30.18 852 25.16 9.8 49.6 37 -4.3 24.3
10:00 1022 30.18 851 25.13 9.7 49.4 34 -5.3 22.5
10:05 1022 30.18 851 25.13 10.4 50.8 35 -4.4 24
10:10 1022 30.18 851 25.13 10.9 51.6 33 -4.9 23.2
10:15 1022 30.18 851 25.13 11.2 52.2 34 -4.1 24.7
10:20 1022 30.18 851 25.13 11.2 52.2 31 -5.1 22.8
10:25 1022 30.18 851 25.13 12.3 54.1 31 -4.5 23.9
10:30 1022 30.18 851 25.13 12.2 53.9 30 -5 23
10:35 1022 30.18 851 25.13 12.1 53.7 30 -5.1 22.8
10:40 1022 30.18 851 25.13 12.5 54.6 28 -5.5 22
10:45 1022 30.18 851 25.13 12.7 54.9 28 -5.5 22.2
10:50 1022 30.18 851 25.13 12.6 54.6 28 -5.6 22
10:55 1022 30.18 851 25.13 11.9 53.3 30 -5.2 22.6
11:00 1022 30.18 851 25.13 12.4 54.4 27 -6.2 20.9
11:05 1022 30.18 851 25.13 13.4 56.1 27 -5 23
11:10 1022 30.18 851 25.13 12.5 54.4 27 -5.9 21.3
11:15 1022 30.18 851 25.13 12.7 54.8 26 -6.1 21.1
11:20 1022 30.18 851 25.13 11.8 53.2 29 -5.7 21.7
11:25 1022 30.18 851 25.13 13.1 55.5 26 -6 21.2
11:30 1022 30.18 851 25.13 14 57.3 25 -5.4 22.3
11:35 1022 30.18 851 25.13 14.1 57.4 25 -5.6 21.9
11:40 1022 30.18 851 25.13 13.2 55.8 23 -7.3 18.8
11:45 1021 30.15 851 25.13 13.5 56.2 24 -6.5 20.2
11:50 1021 30.15 851 25.13 14.4 58 20 -8.1 17.4
11:55 1021 30.15 851 25.13 13.4 56 26 -5.6 21.9
12:00 1021 30.15 851 25.13 13.9 57.1 25 -6 21.3
12:05 1021 30.15 851 25.13 14.6 58.2 23 -6.1 21
12:10 1021 30.15 851 25.13 14.7 58.5 23 -6 21.2
12:15 1021 30.15 850 25.1 14.7 58.4 23 -6.3 20.6
12:20 1021 30.15 850 25.1 14.8 58.6 20 -7.9 17.8
12:25 1021 30.15 850 25.1 15.4 59.7 19 -8.2 17.2
12:30 1021 30.15 850 25.1 15.8 60.5 18 -8.3 17.1
12:35 1021 30.15 850 25.1 16.1 60.9 21 -6.4 20.5
12:40 1021 30.15 850 25.1 16.2 61.2 19 -7.3 18.8
12:45 1021 30.15 850 25.1 16.7 62.1 20 -6.5 20.2
12:50 1021 30.15 850 25.1 16.5 61.7 18 -7.6 18.2
12:55 1021 30.15 850 25.1 16.6 62 19 -6.8 19.8
13:00 1021 30.15 850 25.1 16.2 61.2 18 -7.8 18
13:05 1021 30.15 850 25.1 15.7 60.2 20 -7.4 18.7
13:10 1021 30.15 850 25.1 16.1 61 18 -8.2 17.2
13:15 1021 30.15 850 25.1 16.8 62.2 19 -7.1 19.2
13:20 1021 30.15 850 25.1 15.6 60.1 20 -7.2 19
13:25 1021 30.15 850 25.1 15.5 60 18 -8.4 16.9
13:30 1021 30.15 850 25.1 15.7 60.3 20 -7.3 18.8
13:35 1020 30.12 850 25.1 16.1 61 19 -7.1 19.2
13:40 1020 30.12 850 25.1 15.3 59.6 19 -7.9 17.7
13:45 1020 30.12 850 25.1 16.8 62.3 17 -8.1 17.5
13:50 1020 30.12 850 25.1 16 60.9 21 -6.4 20.4
13:55 1020 30.12 850 25.1 15.8 60.4 19 -8 17.6
14:00 1020 30.12 849 25.07 16 60.8 20 -7 19.4
14:05 1020 30.12 849 25.07 16.8 62.3 18 -7.5 18.4
14:10 1020 30.12 849 25.07 16.8 62.2 18 -7.3 18.8
14:15 1020 30.12 849 25.07 16.1 61 20 -7 19.4
14:20 1020 30.12 849 25.07 16.2 61.1 19 -7.6 18.3
14:25 1020 30.12 849 25.07 16 60.8 19 -7.3 18.8
14:30 1020 30.12 849 25.07 17.4 63.3 19 -6.7 19.9
14:35 1020 30.12 849 25.07 17.5 63.4 19 -6.4 20.4
14:40 1020 30.12 849 25.07 16.9 62.4 20 -6.4 20.5
14:45 1020 30.12 849 25.07 17.2 63 18 -7.4 18.7
14:50 1020 30.12 849 25.07 17.7 63.8 17 -7.2 19
14:55 1020 30.12 849 25.07 18.5 65.4 17 -6.9 19.5
15:00 1020 30.12 849 25.07 19.4 67 15 -7.4 18.8
15:05 1020 30.12 849 25.07 19.1 66.3 17 -6.4 20.4
15:10 1020 30.12 849 25.07 18.4 65.1 18 -6.3 20.6
15:15 1020 30.12 849 25.07 18.1 64.6 18 -6.8 19.8
15:20 1019 30.09 849 25.07 18.3 64.9 18 -6.6 20.2
15:25 1019 30.09 849 25.07 19.2 66.5 18 -5.5 22.1
15:30 1019 30.09 849 25.07 19.1 66.3 18 -5.6 21.8
15:35 1019 30.09 849 25.07 19.3 66.7 16 -6.7 20
15:40 1019 30.09 848 25.04 19.7 67.5 16 -7 19.4
15:45 1019 30.09 848 25.04 19.9 67.9 16 -6.8 19.8
15:50 1019 30.09 848 25.04 19.8 67.6 16 -6.7 19.9
15:55 1019 30.09 848 25.04 19.6 67.3 16 -6.6 20
16:00 1019 30.09 848 25.04 19.5 67.1 16 -6.8 19.7
16:05 1019 30.09 848 25.04 19.8 67.7 17 -5.7 21.7
16:10 1019 30.09 848 25.04 19.6 67.3 16 -6.8 19.7
16:15 1019 30.09 848 25.04 18.2 64.8 18 -6.7 19.9
16:20 1019 30.09 848 25.04 18.6 65.4 15 -8.1 17.5
16:25 1019 30.09 848 25.04 19.1 66.4 17 -6.8 19.8
16:30 1019 30.09 848 25.04 18.5 65.2 17 -6.8 19.8
16:35 1019 30.09 848 25.04 18 64.4 18 -6.9 19.7
16:40 1019 30.09 848 25.04 19.1 66.4 15 -7.8 17.9
16:45 1019 30.09 848 25.04 19 66.2 17 -6.9 19.7
16:50 1019 30.09 848 25.04 18.8 65.9 16 -7.6 18.3
16:55 1019 30.09 848 25.04 18.3 64.9 17 -7.1 19.2
17:00 1019 30.09 848 25.04 18.1 64.6 17 -7.3 18.9
17:05 1019 30.09 848 25.04 19 66.1 15 -7.9 17.8
17:10 1018 30.06 848 25.04 19.8 67.7 14 -8.2 17.3
17:15 1018 30.06 848 25.04 19.8 67.6 14 -8.3 17
17:20 1018 30.06 848 25.04 19.1 66.3 14 -9.2 15.4
17:25 1018 30.06 847 25.01 19.5 67.1 14 -8.3 17
17:30 1018 30.06 847 25.01 20.2 68.3 14 -8.4 16.8
17:35 1018 30.06 847 25.01 20.2 68.4 14 -8.2 17.2
17:40 1018 30.06 847 25.01 19.7 67.4 14 -8.8 16.2
17:45 1018 30.06 847 25.01 19.3 66.8 14 -9.1 15.7
17:50 1018 30.06 847 25.01 19.6 67.3 14 -8.6 16.6
17:55 1018 30.06 847 25.01 20.2 68.3 14 -8.2 17.2
18:00 1018 30.06 847 25.01 20.2 68.4 13 -9 15.8
18:05 1018 30.06 847 25.01 20.4 68.7 14 -8.2 17.3
18:10 1018 30.06 847 25.01 19.8 67.6 13 -9 15.7
18:15 1018 30.06 847 25.01 19.5 67 14 -9.1 15.7
18:20 1018 30.06 847 25.01 19.2 66.5 13 -9.4 15.1
18:25 1018 30.06 847 25.01 18.9 66.1 14 -9.5 14.9
18:30 1018 30.06 847 25.01 19.1 66.3 13 -9.9 14.2
18:35 1018 30.06 847 25.01 19.2 66.6 13 -9.7 14.5
18:40 1018 30.06 847 25.01 19.7 67.4 13 -9.6 14.7
18:45 1018 30.06 847 25.01 19.9 67.8 12 -9.8 14.4
18:50 1018 30.06 847 25.01 19.3 66.7 13 -9.9 14.3
18:55 1018 30.06 847 25.01 19 66.2 13 -9.5 14.9
19:00 1018 30.06 847 25.01 18.9 66 13 -9.9 14.2
19:05 1018 30.06 847 25.01 19.1 66.4 13 -10.2 13.6
19:10 1018 30.06 847 25.01 19.4 66.9 12 -10.6 12.9
19:15 1018 30.06 847 25.01 18.7 65.7 13 -10.5 13.1
19:20 1018 30.06 847 25.01 18.4 65.2 13 -10.7 12.8
19:25 1018 30.06 847 25.01 18.3 64.9 14 -9.7 14.6
19:30 1018 30.06 847 25.01 18.5 65.2 13 -10.6 12.9
19:35 1018 30.06 847 25.01 18.3 64.9 13 -10.3 13.5
19:40 1018 30.06 847 25.01 18.2 64.7 13 -10.8 12.5
19:45 1018 30.06 847 25.01 18 64.4 13 -10.6 12.8
19:50 1018 30.06 847 25.01 18 64.5 13 -10.5 13.2
19:55 1018 30.06 847 25.01 18.1 64.7 13 -10.5 13.1
20:00 1018 30.06 847 25.01 18.2 64.7 14 -10 13.9
20:05 1018 30.06 847 25.01 18.2 64.7 14 -10.1 13.8
20:10 1018 30.06 847 25.01 18.1 64.6 14 -9.7 14.5
20:15 1018 30.06 847 25.01 18 64.3 14 -9.6 14.8
20:20 1018 30.06 847 25.01 17.9 64.2 14 -9.5 14.9
20:25 1018 30.06 848 25.04 17.8 64.1 14 -9.6 14.7
20:30 1018 30.06 848 25.04 17.7 63.9 15 -9.2 15.4
20:35 1018 30.06 848 25.04 17.6 63.7 15 -8.9 16
20:40 1018 30.06 848 25.04 17.6 63.6 18 -7.3 18.9
20:45 1018 30.06 848 25.04 17.3 63.2 18 -7.1 19.3
20:50 1018 30.06 848 25.04 16.8 62.2 19 -6.9 19.6
20:55 1018 30.06 848 25.04 16.2 61.2 22 -5.4 22.2
21:00 1018 30.06 848 25.04 15.8 60.4 22 -5.6 21.9
21:05 1018 30.06 848 25.04 15.3 59.5 26 -4.1 24.7
21:10 1018 30.06 848 25.04 14.9 58.8 28 -3.3 26
21:15 1019 30.09 848 25.04 14.4 58 30 -2.9 26.8
21:20 1019 30.09 848 25.04 13.5 56.3 32 -2.9 26.8
21:25 1019 30.09 848 25.04 13.1 55.6 32 -3.2 26.3
21:30 1019 30.09 848 25.04 12.8 55 33 -3.2 26.2
21:35 1019 30.09 848 25.04 12.5 54.6 33 -3.3 26.1
21:40 1019 30.09 848 25.04 12.4 54.2 31 -4.4 24.1
21:45 1019 30.09 848 25.04 12.1 53.8 33 -3.7 25.3
21:50 1019 30.09 848 25.04 11.7 53 33 -4 24.9
21:55 1019 30.09 848 25.04 11.4 52.4 33 -4.3 24.3
22:00 1019 30.09 848 25.04 11.2 52.2 33 -4.3 24.3
22:05 1019 30.09 848 25.04 11.2 52.2 34 -4.1 24.6
22:10 1019 30.09 848 25.04 11.4 52.5 34 -3.8 25.2
22:15 1019 30.09 848 25.04 11.7 53 35 -3.4 25.9
22:20 1019 30.09 848 25.04 11.7 53 35 -3.2 26.3
22:25 1019 30.09 848 25.04 11.7 53.1 36 -2.9 26.8
22:30 1019 30.09 848 25.04 11.9 53.3 36 -2.5 27.4
22:35 1019 30.09 849 25.07 11.9 53.4 36 -2.5 27.4
22:40 1019 30.09 849 25.07 11.9 53.3 37 -2.2 28
22:45 1019 30.09 849 25.07 11.7 53.1 38 -2 28.4
22:50 1019 30.09 849 25.07 11.6 53 40 -1.6 29.2
22:55 1019 30.09 849 25.07 11.5 52.8 40 -1.6 29
23:00 1020 30.12 849 25.07 11.3 52.3 41 -1.3 29.6
23:05 1020 30.12 849 25.07 11.1 51.9 42 -1.2 29.8
23:10 1020 30.12 849 25.07 11 51.9 44 -0.6 31
23:15 1020 30.12 849 25.07 10.6 51 45 -0.8 30.6
23:20 1020 30.12 849 25.07 10.5 50.9 44 -1.2 29.8
23:25 1020 30.12 849 25.07 10.4 50.7 42 -1.9 28.6
23:30 1020 30.12 849 25.07 10.3 50.5 41 -2.4 27.7
23:35 1020 30.12 849 25.07 10 50 43 -2 28.3
23:40 1020 30.12 849 25.07 9.7 49.5 44 -1.9 28.5
23:45 1020 30.12 849 25.07 9.7 49.4 45 -1.6 29.1
23:50 1020 30.12 849 25.07 9.3 48.7 46 -1.7 28.9
23:55 1020 30.12 849 25.07 9 48.2 46 -1.9 28.5
24:00 1020 30.12 849 25.07 9 48.2 46 -2 28.4